sensor_id;sensor_type;location;lat;lon;timestamp;pressure;altitude;pressure_sealevel;temperature;humidity
58662;BME280;44432;49.786;22.760;2024-03-08T00:00:21;100037.52;;;1.24;71.95
58662;BME280;44432;49.786;22.760;2024-03-08T00:03:12;100038.53;;;1.22;71.97
58662;BME280;44432;49.786;22.760;2024-03-08T00:05:43;100041.20;;;1.21;71.91
58662;BME280;44432;49.786;22.760;2024-03-08T00:08:14;100036.14;;;1.20;72.02
58662;BME280;44432;49.786;22.760;2024-03-08T00:10:45;100039.15;;;1.19;72.11
58662;BME280;44432;49.786;22.760;2024-03-08T00:13:15;100032.20;;;1.17;72.22
58662;BME280;44432;49.786;22.760;2024-03-08T00:15:46;100032.83;;;1.18;72.00
58662;BME280;44432;49.786;22.760;2024-03-08T00:18:17;100032.79;;;1.17;72.16
58662;BME280;44432;49.786;22.760;2024-03-08T00:20:48;100031.89;;;1.15;72.32
58662;BME280;44432;49.786;22.760;2024-03-08T00:23:20;100029.46;;;1.11;72.20
58662;BME280;44432;49.786;22.760;2024-03-08T00:25:51;100029.96;;;1.09;72.33
58662;BME280;44432;49.786;22.760;2024-03-08T00:28:22;100025.16;;;1.09;72.59
58662;BME280;44432;49.786;22.760;2024-03-08T00:30:54;100018.23;;;1.09;72.52
58662;BME280;44432;49.786;22.760;2024-03-08T00:33:25;100023.84;;;1.08;72.65
58662;BME280;44432;49.786;22.760;2024-03-08T00:35:56;100021.52;;;1.07;72.53
58662;BME280;44432;49.786;22.760;2024-03-08T00:38:27;100014.45;;;1.04;72.62
58662;BME280;44432;49.786;22.760;2024-03-08T00:40:58;100018.91;;;1.05;72.67
58662;BME280;44432;49.786;22.760;2024-03-08T00:43:29;100015.46;;;1.05;72.76
58662;BME280;44432;49.786;22.760;2024-03-08T00:46:00;100017.02;;;1.03;72.47
58662;BME280;44432;49.786;22.760;2024-03-08T00:48:31;100011.68;;;1.01;72.75
58662;BME280;44432;49.786;22.760;2024-03-08T00:51:02;100015.89;;;1.00;72.74
58662;BME280;44432;49.786;22.760;2024-03-08T00:53:33;100010.51;;;1.00;72.91
58662;BME280;44432;49.786;22.760;2024-03-08T00:56:04;100007.90;;;1.01;72.95
58662;BME280;44432;49.786;22.760;2024-03-08T00:58:35;100013.58;;;1.01;73.03
58662;BME280;44432;49.786;22.760;2024-03-08T01:01:06;100013.02;;;1.01;72.77
58662;BME280;44432;49.786;22.760;2024-03-08T01:03:39;100011.92;;;1.00;72.93
58662;BME280;44432;49.786;22.760;2024-03-08T01:06:10;100010.31;;;0.98;72.74
58662;BME280;44432;49.786;22.760;2024-03-08T01:08:42;100007.98;;;0.97;72.79
58662;BME280;44432;49.786;22.760;2024-03-08T01:11:14;100003.65;;;0.93;72.76
58662;BME280;44432;49.786;22.760;2024-03-08T01:13:44;100009.43;;;0.95;72.93
58662;BME280;44432;49.786;22.760;2024-03-08T01:16:16;100008.44;;;0.94;72.92
58662;BME280;44432;49.786;22.760;2024-03-08T01:18:47;100009.27;;;0.92;72.77
58662;BME280;44432;49.786;22.760;2024-03-08T01:21:18;100005.25;;;0.91;72.86
58662;BME280;44432;49.786;22.760;2024-03-08T01:23:49;100005.52;;;0.90;72.95
58662;BME280;44432;49.786;22.760;2024-03-08T01:26:20;100001.34;;;0.90;73.26
58662;BME280;44432;49.786;22.760;2024-03-08T01:28:50;99995.90;;;0.91;73.18
58662;BME280;44432;49.786;22.760;2024-03-08T01:31:21;99994.16;;;0.91;72.99
58662;BME280;44432;49.786;22.760;2024-03-08T01:33:52;99995.17;;;0.87;73.02
58662;BME280;44432;49.786;22.760;2024-03-08T01:36:23;99990.22;;;0.84;73.01
58662;BME280;44432;49.786;22.760;2024-03-08T01:38:54;99991.96;;;0.84;73.16
58662;BME280;44432;49.786;22.760;2024-03-08T01:41:24;99986.90;;;0.85;73.39
58662;BME280;44432;49.786;22.760;2024-03-08T01:43:59;99989.34;;;0.84;73.36
58662;BME280;44432;49.786;22.760;2024-03-08T01:46:30;99991.06;;;0.85;73.33
58662;BME280;44432;49.786;22.760;2024-03-08T01:49:02;99988.30;;;0.84;73.40
58662;BME280;44432;49.786;22.760;2024-03-08T01:51:34;99984.05;;;0.83;73.62
58662;BME280;44432;49.786;22.760;2024-03-08T01:54:05;99983.53;;;0.84;73.67
58662;BME280;44432;49.786;22.760;2024-03-08T01:56:37;99979.83;;;0.84;73.73
58662;BME280;44432;49.786;22.760;2024-03-08T01:59:09;99978.86;;;0.83;73.73
58662;BME280;44432;49.786;22.760;2024-03-08T02:01:40;99976.42;;;0.84;73.53
58662;BME280;44432;49.786;22.760;2024-03-08T02:04:11;99972.20;;;0.82;73.49
58662;BME280;44432;49.786;22.760;2024-03-08T02:06:42;99970.08;;;0.83;73.59
58662;BME280;44432;49.786;22.760;2024-03-08T02:09:14;99967.06;;;0.84;73.61
58662;BME280;44432;49.786;22.760;2024-03-08T02:11:47;99970.70;;;0.84;73.67
58662;BME280;44432;49.786;22.760;2024-03-08T02:14:18;99969.31;;;0.84;73.77
58662;BME280;44432;49.786;22.760;2024-03-08T02:16:49;99968.35;;;0.83;73.77
58662;BME280;44432;49.786;22.760;2024-03-08T02:19:20;99967.58;;;0.82;73.71
58662;BME280;44432;49.786;22.760;2024-03-08T02:21:51;99970.48;;;0.82;73.67
58662;BME280;44432;49.786;22.760;2024-03-08T02:24:22;99967.03;;;0.82;73.69
58662;BME280;44432;49.786;22.760;2024-03-08T02:26:53;99967.55;;;0.82;73.65
58662;BME280;44432;49.786;22.760;2024-03-08T02:29:24;99966.41;;;0.81;73.80
58662;BME280;44432;49.786;22.760;2024-03-08T02:31:55;99963.85;;;0.77;73.68
58662;BME280;44432;49.786;22.760;2024-03-08T02:34:26;99965.34;;;0.72;73.82
58662;BME280;44432;49.786;22.760;2024-03-08T02:36:57;99968.83;;;0.70;74.05
58662;BME280;44432;49.786;22.760;2024-03-08T02:39:28;99969.61;;;0.66;74.30
58662;BME280;44432;49.786;22.760;2024-03-08T02:41:58;99967.50;;;0.64;74.40
58662;BME280;44432;49.786;22.760;2024-03-08T02:44:29;99970.04;;;0.61;74.38
58662;BME280;44432;49.786;22.760;2024-03-08T02:47:00;99973.04;;;0.59;74.58
58662;BME280;44432;49.786;22.760;2024-03-08T02:49:31;99973.67;;;0.55;74.61
58662;BME280;44432;49.786;22.760;2024-03-08T02:52:02;99977.56;;;0.48;74.58
58662;BME280;44432;49.786;22.760;2024-03-08T02:54:33;99977.32;;;0.43;74.71
58662;BME280;44432;49.786;22.760;2024-03-08T02:57:04;99978.73;;;0.41;75.14
58662;BME280;44432;49.786;22.760;2024-03-08T02:59:36;99979.33;;;0.40;75.13
58662;BME280;44432;49.786;22.760;2024-03-08T03:02:09;99978.89;;;0.39;75.23
58662;BME280;44432;49.786;22.760;2024-03-08T03:04:42;99977.55;;;0.39;75.47
58662;BME280;44432;49.786;22.760;2024-03-08T03:07:12;99979.79;;;0.39;75.53
58662;BME280;44432;49.786;22.760;2024-03-08T03:09:43;99980.64;;;0.39;75.57
58662;BME280;44432;49.786;22.760;2024-03-08T03:12:14;99982.58;;;0.37;75.46
58662;BME280;44432;49.786;22.760;2024-03-08T03:14:45;99985.76;;;0.33;75.40
58662;BME280;44432;49.786;22.760;2024-03-08T03:17:16;99981.04;;;0.30;75.31
58662;BME280;44432;49.786;22.760;2024-03-08T03:19:47;99986.58;;;0.28;75.55
58662;BME280;44432;49.786;22.760;2024-03-08T03:22:18;99984.54;;;0.25;75.50
58662;BME280;44432;49.786;22.760;2024-03-08T03:24:49;99983.42;;;0.26;75.84
58662;BME280;44432;49.786;22.760;2024-03-08T03:27:20;99983.59;;;0.26;75.79
58662;BME280;44432;49.786;22.760;2024-03-08T03:29:51;99982.20;;;0.28;76.11
58662;BME280;44432;49.786;22.760;2024-03-08T03:32:22;99982.50;;;0.27;75.74
58662;BME280;44432;49.786;22.760;2024-03-08T03:34:53;99983.48;;;0.26;75.72
58662;BME280;44432;49.786;22.760;2024-03-08T03:37:24;99982.19;;;0.24;75.75
58662;BME280;44432;49.786;22.760;2024-03-08T03:39:54;99980.74;;;0.25;76.03
58662;BME280;44432;49.786;22.760;2024-03-08T03:42:27;99979.61;;;0.24;75.93
58662;BME280;44432;49.786;22.760;2024-03-08T03:44:57;99976.14;;;0.24;76.05
58662;BME280;44432;49.786;22.760;2024-03-08T03:47:28;99979.42;;;0.24;76.05
58662;BME280;44432;49.786;22.760;2024-03-08T03:49:59;99974.91;;;0.25;76.25
58662;BME280;44432;49.786;22.760;2024-03-08T03:52:32;99973.91;;;0.26;76.13
58662;BME280;44432;49.786;22.760;2024-03-08T03:55:03;99970.36;;;0.27;76.36
58662;BME280;44432;49.786;22.760;2024-03-08T03:57:34;99962.91;;;0.25;76.13
58662;BME280;44432;49.786;22.760;2024-03-08T04:00:07;99957.81;;;0.26;76.11
58662;BME280;44432;49.786;22.760;2024-03-08T04:02:40;99962.83;;;0.24;76.01
58662;BME280;44432;49.786;22.760;2024-03-08T04:05:12;99960.74;;;0.22;75.87
58662;BME280;44432;49.786;22.760;2024-03-08T04:07:43;99954.58;;;0.19;75.94
58662;BME280;44432;49.786;22.760;2024-03-08T04:10:14;99957.68;;;0.16;75.87
58662;BME280;44432;49.786;22.760;2024-03-08T04:12:45;99953.73;;;0.15;76.26
58662;BME280;44432;49.786;22.760;2024-03-08T04:15:15;99949.70;;;0.18;76.45
58662;BME280;44432;49.786;22.760;2024-03-08T04:17:46;99950.70;;;0.18;76.42
58662;BME280;44432;49.786;22.760;2024-03-08T04:20:17;99951.55;;;0.20;76.68
58662;BME280;44432;49.786;22.760;2024-03-08T04:22:48;99951.27;;;0.24;76.86
58662;BME280;44432;49.786;22.760;2024-03-08T04:25:19;99952.27;;;0.26;76.79
58662;BME280;44432;49.786;22.760;2024-03-08T04:27:49;99948.52;;;0.27;76.70
58662;BME280;44432;49.786;22.760;2024-03-08T04:30:22;99954.88;;;0.30;76.77
58662;BME280;44432;49.786;22.760;2024-03-08T04:32:53;99955.65;;;0.31;76.78
58662;BME280;44432;49.786;22.760;2024-03-08T04:35:24;99958.58;;;0.33;76.82
58662;BME280;44432;49.786;22.760;2024-03-08T04:37:55;99960.17;;;0.31;76.58
58662;BME280;44432;49.786;22.760;2024-03-08T04:40:27;99957.52;;;0.28;76.32
58662;BME280;44432;49.786;22.760;2024-03-08T04:42:57;99961.30;;;0.24;76.31
58662;BME280;44432;49.786;22.760;2024-03-08T04:45:29;99960.63;;;0.21;76.34
58662;BME280;44432;49.786;22.760;2024-03-08T04:48:00;99962.34;;;0.20;76.54
58662;BME280;44432;49.786;22.760;2024-03-08T04:50:31;99965.20;;;0.18;76.46
58662;BME280;44432;49.786;22.760;2024-03-08T04:53:01;99963.08;;;0.17;76.54
58662;BME280;44432;49.786;22.760;2024-03-08T04:55:32;99965.13;;;0.18;76.68
58662;BME280;44432;49.786;22.760;2024-03-08T04:58:03;99969.45;;;0.20;76.93
58662;BME280;44432;49.786;22.760;2024-03-08T05:00:35;99969.59;;;0.20;76.80
58662;BME280;44432;49.786;22.760;2024-03-08T05:03:06;99967.66;;;0.22;77.09
58662;BME280;44432;49.786;22.760;2024-03-08T05:05:36;99966.80;;;0.26;77.15
58662;BME280;44432;49.786;22.760;2024-03-08T05:08:08;99975.60;;;0.31;77.06
58662;BME280;44432;49.786;22.760;2024-03-08T05:10:39;99977.41;;;0.32;77.03
58662;BME280;44432;49.786;22.760;2024-03-08T05:13:09;99977.33;;;0.33;76.92
58662;BME280;44432;49.786;22.760;2024-03-08T05:15:42;99972.14;;;0.33;76.92
58662;BME280;44432;49.786;22.760;2024-03-08T05:18:13;99978.15;;;0.31;76.85
58662;BME280;44432;49.786;22.760;2024-03-08T05:20:44;99975.56;;;0.29;76.79
58662;BME280;44432;49.786;22.760;2024-03-08T05:23:15;99980.66;;;0.30;76.99
58662;BME280;44432;49.786;22.760;2024-03-08T05:25:49;99977.05;;;0.32;77.10
58662;BME280;44432;49.786;22.760;2024-03-08T05:28:19;99980.48;;;0.35;76.95
58662;BME280;44432;49.786;22.760;2024-03-08T05:30:50;99980.21;;;0.36;76.90
58662;BME280;44432;49.786;22.760;2024-03-08T05:33:21;99984.35;;;0.38;77.31
58662;BME280;44432;49.786;22.760;2024-03-08T05:35:53;99984.68;;;0.38;77.04
58662;BME280;44432;49.786;22.760;2024-03-08T05:38:24;99989.12;;;0.39;77.00
58662;BME280;44432;49.786;22.760;2024-03-08T05:40:54;99987.04;;;0.39;76.95
58662;BME280;44432;49.786;22.760;2024-03-08T05:43:25;99987.34;;;0.39;77.16
58662;BME280;44432;49.786;22.760;2024-03-08T05:45:56;99991.67;;;0.44;77.19
58662;BME280;44432;49.786;22.760;2024-03-08T05:48:27;99991.07;;;0.47;77.31
58662;BME280;44432;49.786;22.760;2024-03-08T05:50:59;99991.86;;;0.47;77.14
58662;BME280;44432;49.786;22.760;2024-03-08T05:53:31;99994.77;;;0.50;76.88
58662;BME280;44432;49.786;22.760;2024-03-08T05:56:03;99996.72;;;0.51;77.17
58662;BME280;44432;49.786;22.760;2024-03-08T05:58:34;99996.67;;;0.54;77.07
58662;BME280;44432;49.786;22.760;2024-03-08T06:01:05;99996.74;;;0.53;77.01
58662;BME280;44432;49.786;22.760;2024-03-08T06:03:37;99997.27;;;0.57;77.04
58662;BME280;44432;49.786;22.760;2024-03-08T06:06:14;99998.91;;;0.60;77.09
58662;BME280;44432;49.786;22.760;2024-03-08T06:08:47;99996.88;;;0.63;77.01
58662;BME280;44432;49.786;22.760;2024-03-08T06:11:19;99997.54;;;0.66;76.97
58662;BME280;44432;49.786;22.760;2024-03-08T06:13:51;99997.22;;;0.68;76.77
58662;BME280;44432;49.786;22.760;2024-03-08T06:16:21;99996.69;;;0.64;76.41
58662;BME280;44432;49.786;22.760;2024-03-08T06:18:52;99998.52;;;0.58;76.67
58662;BME280;44432;49.786;22.760;2024-03-08T06:21:24;100004.80;;;0.62;76.78
58662;BME280;44432;49.786;22.760;2024-03-08T06:23:56;100001.17;;;0.64;76.81
58662;BME280;44432;49.786;22.760;2024-03-08T06:26:28;100000.50;;;0.68;77.20
58662;BME280;44432;49.786;22.760;2024-03-08T06:28:59;99996.39;;;0.74;76.85
58662;BME280;44432;49.786;22.760;2024-03-08T06:31:29;99991.99;;;0.76;76.65
58662;BME280;44432;49.786;22.760;2024-03-08T06:34:00;99992.66;;;0.78;76.67
58662;BME280;44432;49.786;22.760;2024-03-08T06:36:31;99995.95;;;0.80;76.82
58662;BME280;44432;49.786;22.760;2024-03-08T06:39:02;99994.95;;;0.86;76.83
58662;BME280;44432;49.786;22.760;2024-03-08T06:41:38;99994.84;;;0.95;77.03
58662;BME280;44432;49.786;22.760;2024-03-08T06:44:09;99994.08;;;1.02;76.68
58662;BME280;44432;49.786;22.760;2024-03-08T06:46:40;99996.73;;;1.09;76.88
58662;BME280;44432;49.786;22.760;2024-03-08T06:49:12;99999.67;;;1.17;76.62
58662;BME280;44432;49.786;22.760;2024-03-08T06:51:43;100002.64;;;1.20;76.24
58662;BME280;44432;49.786;22.760;2024-03-08T06:54:13;100000.55;;;1.24;76.47
58662;BME280;44432;49.786;22.760;2024-03-08T06:56:44;100004.92;;;1.32;76.60
58662;BME280;44432;49.786;22.760;2024-03-08T06:59:15;100001.73;;;1.38;76.25
58662;BME280;44432;49.786;22.760;2024-03-08T07:01:47;100007.36;;;1.41;75.75
58662;BME280;44432;49.786;22.760;2024-03-08T07:04:18;100001.88;;;1.35;75.43
58662;BME280;44432;49.786;22.760;2024-03-08T07:06:49;100002.92;;;1.39;75.80
58662;BME280;44432;49.786;22.760;2024-03-08T07:09:20;100004.55;;;1.46;75.83
58662;BME280;44432;49.786;22.760;2024-03-08T07:11:51;100007.34;;;1.51;75.83
58662;BME280;44432;49.786;22.760;2024-03-08T07:14:24;100009.81;;;1.57;75.72
58662;BME280;44432;49.786;22.760;2024-03-08T07:16:55;100006.55;;;1.64;75.71
58662;BME280;44432;49.786;22.760;2024-03-08T07:19:26;100006.46;;;1.71;75.76
58662;BME280;44432;49.786;22.760;2024-03-08T07:21:56;100001.92;;;1.77;75.56
58662;BME280;44432;49.786;22.760;2024-03-08T07:24:27;100002.46;;;1.81;75.05
58662;BME280;44432;49.786;22.760;2024-03-08T07:27:08;100000.92;;;1.82;74.76
58662;BME280;44432;49.786;22.760;2024-03-08T07:29:39;100000.45;;;1.85;74.95
58662;BME280;44432;49.786;22.760;2024-03-08T07:32:11;100001.69;;;1.91;74.73
58662;BME280;44432;49.786;22.760;2024-03-08T07:34:50;100003.59;;;2.01;75.29
58662;BME280;44432;49.786;22.760;2024-03-08T07:37:22;100000.98;;;2.10;74.81
58662;BME280;44432;49.786;22.760;2024-03-08T07:39:53;99998.97;;;2.18;74.92
58662;BME280;44432;49.786;22.760;2024-03-08T07:42:24;100004.45;;;2.28;74.63
58662;BME280;44432;49.786;22.760;2024-03-08T07:44:55;99994.05;;;2.34;74.50
58662;BME280;44432;49.786;22.760;2024-03-08T07:47:26;99999.52;;;2.39;73.72
58662;BME280;44432;49.786;22.760;2024-03-08T07:49:56;99999.17;;;2.42;74.09
58662;BME280;44432;49.786;22.760;2024-03-08T07:52:29;99997.52;;;2.47;73.71
58662;BME280;44432;49.786;22.760;2024-03-08T07:55:00;100003.91;;;2.51;73.54
58662;BME280;44432;49.786;22.760;2024-03-08T07:57:31;100001.27;;;2.57;73.78
58662;BME280;44432;49.786;22.760;2024-03-08T08:00:02;99999.70;;;2.65;73.39
58662;BME280;44432;49.786;22.760;2024-03-08T08:02:36;99995.80;;;2.71;73.10
58662;BME280;44432;49.786;22.760;2024-03-08T08:05:08;99997.20;;;2.76;72.81
58662;BME280;44432;49.786;22.760;2024-03-08T08:07:39;99994.66;;;2.79;72.45
58662;BME280;44432;49.786;22.760;2024-03-08T08:10:13;99994.98;;;2.86;72.79
58662;BME280;44432;49.786;22.760;2024-03-08T08:12:48;99998.42;;;2.89;72.41
58662;BME280;44432;49.786;22.760;2024-03-08T08:15:18;99992.09;;;2.97;72.87
58662;BME280;44432;49.786;22.760;2024-03-08T08:17:49;99990.11;;;3.10;72.87
58662;BME280;44432;49.786;22.760;2024-03-08T08:20:21;99993.52;;;3.27;73.12
58662;BME280;44432;49.786;22.760;2024-03-08T08:22:52;99988.20;;;3.37;72.33
58662;BME280;44432;49.786;22.760;2024-03-08T08:25:25;99987.45;;;3.43;72.12
58662;BME280;44432;49.786;22.760;2024-03-08T08:27:55;99988.06;;;3.52;72.19
58662;BME280;44432;49.786;22.760;2024-03-08T08:30:26;99986.11;;;3.64;71.93
58662;BME280;44432;49.786;22.760;2024-03-08T08:32:57;99984.02;;;3.67;70.74
58662;BME280;44432;49.786;22.760;2024-03-08T08:35:30;99985.24;;;3.51;69.99
58662;BME280;44432;49.786;22.760;2024-03-08T08:38:02;99975.89;;;3.42;70.24
58662;BME280;44432;49.786;22.760;2024-03-08T08:40:33;99983.93;;;3.50;71.39
58662;BME280;44432;49.786;22.760;2024-03-08T08:43:05;99983.00;;;3.63;71.46
58662;BME280;44432;49.786;22.760;2024-03-08T08:45:36;99978.91;;;3.75;71.30
58662;BME280;44432;49.786;22.760;2024-03-08T08:48:08;99978.52;;;3.81;70.69
58662;BME280;44432;49.786;22.760;2024-03-08T08:50:40;99978.94;;;3.83;70.69
58662;BME280;44432;49.786;22.760;2024-03-08T08:53:11;99973.09;;;3.86;70.71
58662;BME280;44432;49.786;22.760;2024-03-08T08:55:42;99974.08;;;3.83;69.34
58662;BME280;44432;49.786;22.760;2024-03-08T08:58:15;99971.80;;;3.80;69.64
58662;BME280;44432;49.786;22.760;2024-03-08T09:00:46;99972.48;;;3.83;69.96
58662;BME280;44432;49.786;22.760;2024-03-08T09:03:16;99971.09;;;3.92;69.95
58662;BME280;44432;49.786;22.760;2024-03-08T09:05:47;99973.35;;;4.04;69.75
58662;BME280;44432;49.786;22.760;2024-03-08T09:08:18;99973.73;;;4.17;69.53
58662;BME280;44432;49.786;22.760;2024-03-08T09:10:49;99963.94;;;4.30;68.72
58662;BME280;44432;49.786;22.760;2024-03-08T09:13:20;99966.17;;;4.40;67.98
58662;BME280;44432;49.786;22.760;2024-03-08T09:15:52;99960.86;;;4.53;67.79
58662;BME280;44432;49.786;22.760;2024-03-08T09:18:23;99959.70;;;4.68;67.39
58662;BME280;44432;49.786;22.760;2024-03-08T09:20:53;99959.04;;;4.81;66.92
58662;BME280;44432;49.786;22.760;2024-03-08T09:23:24;99956.98;;;4.92;66.43
58662;BME280;44432;49.786;22.760;2024-03-08T09:25:59;99957.88;;;5.00;65.91
58662;BME280;44432;49.786;22.760;2024-03-08T09:28:31;99954.84;;;5.03;65.23
58662;BME280;44432;49.786;22.760;2024-03-08T09:31:01;99958.29;;;5.06;64.97
58662;BME280;44432;49.786;22.760;2024-03-08T09:33:32;99951.80;;;5.05;64.36
58662;BME280;44432;49.786;22.760;2024-03-08T09:36:04;99950.57;;;5.05;64.40
58662;BME280;44432;49.786;22.760;2024-03-08T09:38:35;99951.52;;;5.08;63.88
58662;BME280;44432;49.786;22.760;2024-03-08T09:41:06;99954.95;;;5.10;63.62
58662;BME280;44432;49.786;22.760;2024-03-08T09:43:39;99956.67;;;5.18;63.77
58662;BME280;44432;49.786;22.760;2024-03-08T09:46:10;99955.05;;;5.22;62.99
58662;BME280;44432;49.786;22.760;2024-03-08T09:48:41;99956.95;;;5.23;62.97
58662;BME280;44432;49.786;22.760;2024-03-08T09:51:12;99956.00;;;5.29;63.05
58662;BME280;44432;49.786;22.760;2024-03-08T09:53:44;99956.94;;;5.37;62.73
58662;BME280;44432;49.786;22.760;2024-03-08T09:56:16;99957.63;;;5.42;62.51
58662;BME280;44432;49.786;22.760;2024-03-08T09:58:47;99959.17;;;5.45;61.87
58662;BME280;44432;49.786;22.760;2024-03-08T10:01:49;99955.34;;;5.49;61.85
58662;BME280;44432;49.786;22.760;2024-03-08T10:04:21;99951.88;;;5.53;61.55
58662;BME280;44432;49.786;22.760;2024-03-08T10:06:52;99946.98;;;5.58;61.31
58662;BME280;44432;49.786;22.760;2024-03-08T10:09:24;99946.57;;;5.61;60.61
58662;BME280;44432;49.786;22.760;2024-03-08T10:11:57;99948.27;;;5.64;60.68
58662;BME280;44432;49.786;22.760;2024-03-08T10:14:28;99950.89;;;5.68;60.66
58662;BME280;44432;49.786;22.760;2024-03-08T10:16:59;99946.34;;;5.72;60.62
58662;BME280;44432;49.786;22.760;2024-03-08T10:19:30;99946.86;;;5.76;60.26
58662;BME280;44432;49.786;22.760;2024-03-08T10:22:02;99945.69;;;5.74;60.09
58662;BME280;44432;49.786;22.760;2024-03-08T10:24:34;99949.19;;;5.73;60.15
58662;BME280;44432;49.786;22.760;2024-03-08T10:27:05;99946.17;;;5.69;60.02
58662;BME280;44432;49.786;22.760;2024-03-08T10:29:37;99941.13;;;5.61;59.46
58662;BME280;44432;49.786;22.760;2024-03-08T10:32:12;99944.90;;;5.59;59.81
58662;BME280;44432;49.786;22.760;2024-03-08T10:34:43;99940.13;;;5.57;59.67
58662;BME280;44432;49.786;22.760;2024-03-08T10:37:16;99941.23;;;5.56;59.87
58662;BME280;44432;49.786;22.760;2024-03-08T10:39:58;99943.48;;;5.48;59.47
58662;BME280;44432;49.786;22.760;2024-03-08T10:42:46;99943.39;;;5.41;60.14
58662;BME280;44432;49.786;22.760;2024-03-08T10:45:34;99943.55;;;5.41;59.93
58662;BME280;44432;49.786;22.760;2024-03-08T10:48:14;99937.06;;;5.30;59.39
58662;BME280;44432;49.786;22.760;2024-03-08T10:50:47;99935.52;;;5.32;60.08
58662;BME280;44432;49.786;22.760;2024-03-08T10:53:20;99927.31;;;5.43;60.48
58662;BME280;44432;49.786;22.760;2024-03-08T10:55:54;99924.44;;;5.60;60.44
58662;BME280;44432;49.786;22.760;2024-03-08T10:58:25;99926.79;;;5.71;59.95
58662;BME280;44432;49.786;22.760;2024-03-08T11:00:58;99928.16;;;5.74;59.72
58662;BME280;44432;49.786;22.760;2024-03-08T11:03:49;99924.75;;;5.85;59.81
58662;BME280;44432;49.786;22.760;2024-03-08T11:06:31;99922.33;;;5.99;59.80
58662;BME280;44432;49.786;22.760;2024-03-08T11:09:28;99918.94;;;6.06;59.66
58662;BME280;44432;49.786;22.760;2024-03-08T11:12:20;99918.09;;;6.06;58.66
58662;BME280;44432;49.786;22.760;2024-03-08T11:14:52;99920.34;;;5.95;58.36
58662;BME280;44432;49.786;22.760;2024-03-08T11:17:39;99916.13;;;5.83;58.40
58662;BME280;44432;49.786;22.760;2024-03-08T11:20:12;99914.73;;;5.79;58.73
58662;BME280;44432;49.786;22.760;2024-03-08T11:22:51;99909.23;;;5.78;58.71
58662;BME280;44432;49.786;22.760;2024-03-08T11:25:36;99907.23;;;5.72;58.57
58662;BME280;44432;49.786;22.760;2024-03-08T11:28:15;99902.17;;;5.63;58.26
58662;BME280;44432;49.786;22.760;2024-03-08T11:31:25;99902.54;;;5.54;58.63
58662;BME280;44432;49.786;22.760;2024-03-08T11:33:58;99899.00;;;5.48;58.78
58662;BME280;44432;49.786;22.760;2024-03-08T11:36:29;99893.50;;;5.36;58.26
58662;BME280;44432;49.786;22.760;2024-03-08T11:39:06;99888.38;;;5.17;58.02
58662;BME280;44432;49.786;22.760;2024-03-08T11:41:44;99890.86;;;5.05;58.66
58662;BME280;44432;49.786;22.760;2024-03-08T11:44:16;99886.05;;;5.00;59.08
58662;BME280;44432;49.786;22.760;2024-03-08T11:46:47;99883.42;;;5.00;59.46
58662;BME280;44432;49.786;22.760;2024-03-08T11:49:18;99882.42;;;5.04;59.57
58662;BME280;44432;49.786;22.760;2024-03-08T11:51:52;99880.27;;;5.04;59.37
58662;BME280;44432;49.786;22.760;2024-03-08T11:54:24;99875.02;;;5.02;59.25
58662;BME280;44432;49.786;22.760;2024-03-08T11:56:55;99873.19;;;4.99;59.44
58662;BME280;44432;49.786;22.760;2024-03-08T11:59:26;99870.80;;;4.97;59.45
58662;BME280;44432;49.786;22.760;2024-03-08T12:02:04;99866.55;;;4.93;59.07
58662;BME280;44432;49.786;22.760;2024-03-08T12:04:35;99863.17;;;4.88;59.20
58662;BME280;44432;49.786;22.760;2024-03-08T12:07:09;99860.95;;;4.88;59.08
58662;BME280;44432;49.786;22.760;2024-03-08T12:09:41;99860.00;;;4.89;59.16
58662;BME280;44432;49.786;22.760;2024-03-08T12:12:15;99853.56;;;4.92;59.21
58662;BME280;44432;49.786;22.760;2024-03-08T12:14:46;99844.02;;;4.95;59.23
58662;BME280;44432;49.786;22.760;2024-03-08T12:17:17;99843.46;;;5.05;59.40
58662;BME280;44432;49.786;22.760;2024-03-08T12:19:49;99839.02;;;5.15;59.40
58662;BME280;44432;49.786;22.760;2024-03-08T12:22:20;99841.66;;;5.26;59.27
58662;BME280;44432;49.786;22.760;2024-03-08T12:25:06;99840.61;;;5.36;59.20
58662;BME280;44432;49.786;22.760;2024-03-08T12:27:40;99838.09;;;5.45;58.98
58662;BME280;44432;49.786;22.760;2024-03-08T12:30:22;99830.88;;;5.48;58.64
58662;BME280;44432;49.786;22.760;2024-03-08T12:32:58;99823.09;;;5.46;58.67
58662;BME280;44432;49.786;22.760;2024-03-08T12:35:30;99827.70;;;5.54;58.69
58662;BME280;44432;49.786;22.760;2024-03-08T12:38:00;99824.09;;;5.58;58.65
58662;BME280;44432;49.786;22.760;2024-03-08T12:40:32;99823.04;;;5.59;58.36
58662;BME280;44432;49.786;22.760;2024-03-08T12:43:04;99822.19;;;5.59;58.22
58662;BME280;44432;49.786;22.760;2024-03-08T12:45:35;99822.54;;;5.63;58.22
58662;BME280;44432;49.786;22.760;2024-03-08T12:48:13;99817.20;;;5.67;58.30
58662;BME280;44432;49.786;22.760;2024-03-08T12:50:45;99818.42;;;5.71;58.40
58662;BME280;44432;49.786;22.760;2024-03-08T12:53:17;99816.75;;;5.72;58.12
58662;BME280;44432;49.786;22.760;2024-03-08T12:55:48;99816.00;;;5.73;58.00
58662;BME280;44432;49.786;22.760;2024-03-08T12:58:19;99815.77;;;5.73;57.88
58662;BME280;44432;49.786;22.760;2024-03-08T13:00:51;99811.84;;;5.76;57.93
58662;BME280;44432;49.786;22.760;2024-03-08T13:03:22;99804.02;;;5.78;57.97
58662;BME280;44432;49.786;22.760;2024-03-08T13:05:53;99808.73;;;5.83;57.85
58662;BME280;44432;49.786;22.760;2024-03-08T13:08:24;99804.73;;;5.91;57.74
58662;BME280;44432;49.786;22.760;2024-03-08T13:10:58;99803.70;;;5.97;57.61
58662;BME280;44432;49.786;22.760;2024-03-08T13:13:29;99800.98;;;6.03;57.30
58662;BME280;44432;49.786;22.760;2024-03-08T13:16:00;99796.00;;;6.07;57.08
58662;BME280;44432;49.786;22.760;2024-03-08T13:18:31;99794.18;;;6.10;56.91
58662;BME280;44432;49.786;22.760;2024-03-08T13:21:03;99796.23;;;6.14;56.80
58662;BME280;44432;49.786;22.760;2024-03-08T13:23:37;99793.69;;;6.18;56.38